createdAt,value
2022-10-11T00:00:37.562Z,20.06
2022-10-11T00:01:39.116Z,20.06
2022-10-11T00:02:40.655Z,20.07
2022-10-11T00:03:42.134Z,20.06
2022-10-11T00:04:43.598Z,20.06
2022-10-11T00:05:45.120Z,20.06
2022-10-11T00:06:47.334Z,20.06
2022-10-11T00:07:48.787Z,20.06
2022-10-11T00:08:50.351Z,20.05
2022-10-11T00:09:51.798Z,20.04
2022-10-11T00:10:57.017Z,20.05
2022-10-11T00:11:58.499Z,20.05
2022-10-11T00:12:59.941Z,20.05
2022-10-11T00:14:01.465Z,20.05
2022-10-11T00:15:03.998Z,20.05
2022-10-11T00:16:09.206Z,20.04
2022-10-11T00:17:10.784Z,20.04
2022-10-11T00:18:12.231Z,20.04
2022-10-11T00:19:13.728Z,20.04
2022-10-11T00:20:15.269Z,20.04
2022-10-11T00:21:16.725Z,20.02
2022-10-11T00:22:18.195Z,20.03
2022-10-11T00:23:19.693Z,20.03
2022-10-11T00:24:21.201Z,20.03
2022-10-11T00:25:22.627Z,20.02
2022-10-11T00:26:24.131Z,20.01
2022-10-11T00:27:25.591Z,20.01
2022-10-11T00:28:27.269Z,19.99
2022-10-11T00:29:28.810Z,19.99
2022-10-11T00:30:30.305Z,19.99
2022-10-11T00:31:35.496Z,19.98
2022-10-11T00:32:37.611Z,19.98
2022-10-11T00:33:39.291Z,19.97
2022-10-11T00:34:40.817Z,19.97
2022-10-11T00:35:42.379Z,19.96
2022-10-11T00:36:44.495Z,19.95
2022-10-11T00:37:46.254Z,19.95
2022-10-11T00:38:47.987Z,19.93
2022-10-11T00:39:49.594Z,19.94
2022-10-11T00:40:51.039Z,19.92
2022-10-11T00:41:52.471Z,19.91
2022-10-11T00:42:53.971Z,19.90
2022-10-11T00:44:11.727Z,19.91
2022-10-11T00:45:42.575Z,19.89
2022-10-11T00:46:55.697Z,19.88
2022-10-11T00:48:01.234Z,19.86
2022-10-11T00:49:06.953Z,19.86
2022-10-11T00:50:08.544Z,19.85
2022-10-11T00:51:32.989Z,19.85
2022-10-11T00:52:35.410Z,19.83
2022-10-11T00:53:36.882Z,19.81
2022-10-11T00:54:39.027Z,19.80
2022-10-11T00:55:41.841Z,19.78
2022-10-11T00:56:43.814Z,19.77
2022-10-11T00:57:46.992Z,19.75
2022-10-11T00:58:48.472Z,19.74
2022-10-11T00:59:51.032Z,19.73
2022-10-11T01:00:53.904Z,19.72
2022-10-11T01:01:55.486Z,19.72
2022-10-11T01:02:56.922Z,19.69
2022-10-11T01:03:58.411Z,19.69
2022-10-11T01:05:18.308Z,19.68
2022-10-11T01:06:21.455Z,19.66
2022-10-11T01:07:22.963Z,19.65
2022-10-11T01:08:24.546Z,19.65
2022-10-11T01:09:26.196Z,19.63
2022-10-11T01:10:27.744Z,19.61
2022-10-11T01:11:29.491Z,19.61
2022-10-11T01:12:31.002Z,19.61
2022-10-11T01:13:41.235Z,19.59
2022-10-11T01:14:58.012Z,19.58
2022-10-11T01:16:05.854Z,19.57
2022-10-11T01:17:13.759Z,19.56
2022-10-11T01:18:15.178Z,19.53
2022-10-11T01:19:25.522Z,19.53
2022-10-11T01:20:36.012Z,19.53
2022-10-11T01:21:37.444Z,19.51
2022-10-11T01:22:54.141Z,19.48
2022-10-11T01:24:04.699Z,19.47
2022-10-11T01:25:08.994Z,19.45
2022-10-11T01:26:13.207Z,19.46
2022-10-11T01:27:33.111Z,19.45
2022-10-11T01:28:37.454Z,19.43
2022-10-11T01:29:48.503Z,19.41
2022-10-11T01:30:50.536Z,19.39
2022-10-11T01:31:56.697Z,19.37
2022-10-11T01:33:00.327Z,19.37
2022-10-11T01:34:23.303Z,19.35
2022-10-11T01:35:27.548Z,19.33
2022-10-11T01:36:33.755Z,19.34
2022-10-11T01:37:35.322Z,19.34
2022-10-11T01:38:47.088Z,19.34
2022-10-11T01:39:49.718Z,19.33
2022-10-11T01:40:53.210Z,19.31
2022-10-11T01:41:55.546Z,19.30
2022-10-11T01:42:57.019Z,19.30
2022-10-11T01:43:59.182Z,19.30
2022-10-11T01:45:00.635Z,19.29
2022-10-11T01:46:02.488Z,19.28
2022-10-11T01:47:04.157Z,19.27
2022-10-11T01:48:09.590Z,19.27
2022-10-11T01:49:11.095Z,19.24
2022-10-11T01:50:33.497Z,19.21
2022-10-11T01:51:36.167Z,19.19
2022-10-11T01:52:37.688Z,19.17
2022-10-11T01:53:54.337Z,19.14
2022-10-11T01:55:11.008Z,19.11
2022-10-11T01:56:12.490Z,19.10
2022-10-11T01:57:25.923Z,19.10
2022-10-11T01:58:27.399Z,19.09
2022-10-11T01:59:28.884Z,19.08
2022-10-11T02:01:05.693Z,19.07
2022-10-11T02:02:25.056Z,19.03
2022-10-11T02:03:34.174Z,19.02
2022-10-11T02:04:44.390Z,19.00
2022-10-11T02:05:55.743Z,18.99
2022-10-11T02:06:58.546Z,18.97
2022-10-11T02:08:03.056Z,18.97
2022-10-11T02:09:08.357Z,18.95
2022-10-11T02:10:17.742Z,18.94
2022-10-11T02:11:20.638Z,18.93
2022-10-11T02:12:28.643Z,18.92
2022-10-11T02:13:32.864Z,18.91
2022-10-11T02:14:35.716Z,18.87
2022-10-11T02:15:38.560Z,18.86
2022-10-11T02:16:43.839Z,18.85
2022-10-11T02:17:47.875Z,18.83
2022-10-11T02:18:50.211Z,18.80
2022-10-11T02:19:52.343Z,18.79
2022-10-11T02:20:54.045Z,18.78
2022-10-11T02:21:56.919Z,18.78
2022-10-11T02:23:07.059Z,18.75
2022-10-11T02:24:09.999Z,18.69
2022-10-11T02:25:12.732Z,18.70
2022-10-11T02:26:14.334Z,18.71
2022-10-11T02:27:16.007Z,18.70
2022-10-11T02:28:18.581Z,18.69
2022-10-11T02:29:20.610Z,18.69
2022-10-11T02:30:22.059Z,18.69
2022-10-11T02:31:23.560Z,18.68
2022-10-11T02:32:25.060Z,18.66
2022-10-11T02:33:27.434Z,18.65
2022-10-11T02:34:31.699Z,18.64
2022-10-11T02:35:34.350Z,18.64
2022-10-11T02:36:47.494Z,18.60
2022-10-11T02:38:03.060Z,18.58
2022-10-11T02:39:08.015Z,18.58
2022-10-11T02:40:11.643Z,18.58
2022-10-11T02:41:15.733Z,18.57
2022-10-11T02:42:21.065Z,18.57
2022-10-11T02:43:30.257Z,18.56
2022-10-11T02:44:35.887Z,18.54
2022-10-11T02:45:37.930Z,18.55
2022-10-11T02:46:39.658Z,18.54
2022-10-11T02:47:41.142Z,18.54
2022-10-11T02:48:42.635Z,18.52
2022-10-11T02:49:44.154Z,18.50
2022-10-11T02:50:45.643Z,18.49
2022-10-11T02:51:47.128Z,18.49
2022-10-11T02:52:48.606Z,18.48
2022-10-11T02:53:50.066Z,18.46
2022-10-11T02:54:51.559Z,18.45
2022-10-11T02:55:53.434Z,18.43
2022-10-11T02:56:54.891Z,18.43
2022-10-11T02:57:56.378Z,18.42
2022-10-11T02:58:57.911Z,18.42
2022-10-11T02:59:59.374Z,18.42
2022-10-11T03:01:00.883Z,18.39
2022-10-11T03:02:02.391Z,18.39
2022-10-11T03:03:03.903Z,18.37
2022-10-11T03:04:05.418Z,18.36
2022-10-11T03:05:06.999Z,18.36
2022-10-11T03:06:09.307Z,18.36
2022-10-11T03:07:10.852Z,18.35
2022-10-11T03:08:12.726Z,18.36
2022-10-11T03:09:14.279Z,18.35
2022-10-11T03:10:15.750Z,18.35
2022-10-11T03:11:17.276Z,18.35
2022-10-11T03:12:18.749Z,18.34
2022-10-11T03:13:20.186Z,18.33
2022-10-11T03:14:21.642Z,18.34
2022-10-11T03:15:23.106Z,18.32
2022-10-11T03:16:24.536Z,18.32
2022-10-11T03:17:42.052Z,18.32
2022-10-11T03:18:43.540Z,18.32
2022-10-11T03:19:45.043Z,18.32
2022-10-11T03:20:46.491Z,18.31
2022-10-11T03:21:47.933Z,18.32
2022-10-11T03:22:49.386Z,18.32
2022-10-11T03:23:50.875Z,18.32
2022-10-11T03:24:52.388Z,18.30
2022-10-11T03:25:53.869Z,18.31
2022-10-11T03:26:55.351Z,18.30
2022-10-11T03:27:56.888Z,18.22
2022-10-11T03:28:58.391Z,18.29
2022-10-11T03:29:59.913Z,18.29
2022-10-11T03:31:01.463Z,18.29
2022-10-11T03:32:03.027Z,18.28
2022-10-11T03:33:04.458Z,18.28
2022-10-11T03:34:05.944Z,18.27
2022-10-11T03:35:07.692Z,18.28
2022-10-11T03:36:09.360Z,18.27
2022-10-11T03:37:11.017Z,18.26
2022-10-11T03:38:13.176Z,18.25
2022-10-11T03:39:14.696Z,18.24
2022-10-11T03:40:16.241Z,18.24
2022-10-11T03:41:17.698Z,18.23
2022-10-11T03:42:19.123Z,18.24
2022-10-11T03:43:20.590Z,18.23
2022-10-11T03:44:22.024Z,18.22
2022-10-11T03:45:23.582Z,18.22
2022-10-11T03:46:25.156Z,18.21
2022-10-11T03:47:26.607Z,18.21
2022-10-11T03:48:28.126Z,18.22
2022-10-11T03:49:29.571Z,18.21
2022-10-11T03:50:31.283Z,18.22
2022-10-11T03:51:32.767Z,18.22
2022-10-11T03:52:34.400Z,18.22
2022-10-11T03:53:35.931Z,18.21
2022-10-11T03:54:37.456Z,18.21
2022-10-11T03:55:40.263Z,18.21
2022-10-11T03:56:41.767Z,18.20
2022-10-11T03:57:43.233Z,18.18
2022-10-11T03:58:44.670Z,18.18
2022-10-11T03:59:46.227Z,18.18
2022-10-11T04:00:47.724Z,18.17
2022-10-11T04:01:49.229Z,18.17
2022-10-11T04:02:50.772Z,18.16
2022-10-11T04:03:54.689Z,18.16
2022-10-11T04:04:56.128Z,18.15
2022-10-11T04:05:57.663Z,18.15
2022-10-11T04:06:59.099Z,18.14
2022-10-11T04:08:00.538Z,18.12
2022-10-11T04:09:02.024Z,18.10
2022-10-11T04:10:03.526Z,18.10
2022-10-11T04:11:05.099Z,18.09
2022-10-11T04:12:06.622Z,18.08
2022-10-11T04:13:09.143Z,17.98
2022-10-11T04:14:10.605Z,18.08
2022-10-11T04:15:15.164Z,18.09
2022-10-11T04:16:16.771Z,18.08
2022-10-11T04:17:18.216Z,18.08
2022-10-11T04:18:19.755Z,18.08
2022-10-11T04:19:21.612Z,18.09
2022-10-11T04:20:23.042Z,18.09
2022-10-11T04:21:24.550Z,18.08
2022-10-11T04:22:26.004Z,18.07
2022-10-11T04:23:27.459Z,18.07
2022-10-11T04:24:29.039Z,18.07
2022-10-11T04:25:30.610Z,18.05
2022-10-11T04:26:32.207Z,18.05
2022-10-11T04:27:33.704Z,18.05
2022-10-11T04:28:35.320Z,18.04
2022-10-11T04:29:36.851Z,18.04
2022-10-11T04:30:38.370Z,18.05
2022-10-11T04:31:40.071Z,18.04
2022-10-11T04:32:41.575Z,18.03
2022-10-11T04:33:43.050Z,18.02
2022-10-11T04:34:44.515Z,18.01
2022-10-11T04:35:46.063Z,18.00
2022-10-11T04:36:49.930Z,17.98
2022-10-11T04:37:51.647Z,17.99
2022-10-11T04:38:56.238Z,17.99
2022-10-11T04:39:57.706Z,17.94
2022-10-11T04:41:05.876Z,17.94
2022-10-11T04:42:07.315Z,17.93
2022-10-11T04:43:08.755Z,17.92
2022-10-11T04:44:10.260Z,17.91
2022-10-11T04:45:11.708Z,17.91
2022-10-11T04:46:13.194Z,17.90
2022-10-11T04:47:14.690Z,17.87
2022-10-11T04:48:16.166Z,17.87
2022-10-11T04:49:17.737Z,17.85
2022-10-11T04:50:19.197Z,17.84
2022-10-11T04:51:20.705Z,17.84
2022-10-11T04:52:25.568Z,17.81
2022-10-11T04:53:27.472Z,17.82
2022-10-11T04:54:28.927Z,17.81
2022-10-11T04:55:30.434Z,17.80
2022-10-11T04:56:32.174Z,17.81
2022-10-11T04:57:33.643Z,17.80
2022-10-11T04:58:35.302Z,17.79
2022-10-11T04:59:36.769Z,17.79
2022-10-11T05:00:38.220Z,17.80
2022-10-11T05:01:39.813Z,17.77
2022-10-11T05:02:41.311Z,17.76
2022-10-11T05:03:42.802Z,17.76
2022-10-11T05:04:44.261Z,17.66
2022-10-11T05:05:45.724Z,17.71
2022-10-11T05:06:47.202Z,17.71
2022-10-11T05:07:48.646Z,17.70
2022-10-11T05:08:50.326Z,17.66
2022-10-11T05:09:51.914Z,17.64
2022-10-11T05:10:56.950Z,17.63
2022-10-11T05:11:58.499Z,17.60
2022-10-11T05:12:59.947Z,17.58
2022-10-11T05:14:01.388Z,17.57
2022-10-11T05:15:03.168Z,17.56
2022-10-11T05:16:09.560Z,17.54
2022-10-11T05:17:12.439Z,17.52
2022-10-11T05:18:13.966Z,17.50
2022-10-11T05:19:15.398Z,17.48
2022-10-11T05:20:16.858Z,17.47
2022-10-11T05:21:22.655Z,17.44
2022-10-11T05:22:24.266Z,17.41
2022-10-11T05:23:25.876Z,17.40
2022-10-11T05:24:27.467Z,17.38
2022-10-11T05:25:28.947Z,17.36
2022-10-11T05:26:30.802Z,17.34
2022-10-11T05:27:32.361Z,17.34
2022-10-11T05:28:34.050Z,17.31
2022-10-11T05:29:35.573Z,17.31
2022-10-11T05:30:37.048Z,17.28
2022-10-11T05:31:38.551Z,17.24
2022-10-11T05:32:40.078Z,17.22
2022-10-11T05:33:41.690Z,17.21
2022-10-11T05:34:43.155Z,17.20
2022-10-11T05:35:44.675Z,17.19
2022-10-11T05:36:46.141Z,17.17
2022-10-11T05:37:47.628Z,17.17
2022-10-11T05:38:49.084Z,17.15
2022-10-11T05:39:50.660Z,17.15
2022-10-11T05:40:52.209Z,17.14
2022-10-11T05:41:53.746Z,17.13
2022-10-11T05:42:55.258Z,17.10
2022-10-11T05:43:56.710Z,17.10
2022-10-11T05:44:58.142Z,17.08
2022-10-11T05:45:59.710Z,17.06
2022-10-11T05:47:01.203Z,17.04
2022-10-11T05:48:02.683Z,17.02
2022-10-11T05:49:04.197Z,16.99
2022-10-11T05:50:05.811Z,16.98
2022-10-11T05:51:07.723Z,16.95
2022-10-11T05:52:10.704Z,16.93
2022-10-11T05:53:12.126Z,16.93
2022-10-11T05:54:13.574Z,16.88
2022-10-11T05:55:15.080Z,16.88
2022-10-11T05:56:20.286Z,16.85
2022-10-11T05:57:21.797Z,16.83
2022-10-11T05:58:23.290Z,16.82
2022-10-11T05:59:24.752Z,16.80
2022-10-11T06:00:26.233Z,16.77
2022-10-11T06:01:27.804Z,16.75
2022-10-11T06:02:29.318Z,16.74
2022-10-11T06:03:30.762Z,16.72
2022-10-11T06:04:35.784Z,16.72
2022-10-11T06:05:37.289Z,16.72
2022-10-11T06:06:38.737Z,16.70
2022-10-11T06:07:40.378Z,16.70
2022-10-11T06:08:41.843Z,16.69
2022-10-11T06:09:43.278Z,16.69
2022-10-11T06:10:44.845Z,16.67
2022-10-11T06:11:46.519Z,16.65
2022-10-11T06:12:48.414Z,16.64
2022-10-11T06:13:49.925Z,16.64
2022-10-11T06:14:51.378Z,16.62
2022-10-11T06:15:52.806Z,16.61
2022-10-11T06:16:54.253Z,16.60
2022-10-11T06:17:56.031Z,16.59
2022-10-11T06:18:57.641Z,16.58
2022-10-11T06:19:59.152Z,16.54
2022-10-11T06:21:00.675Z,16.55
2022-10-11T06:22:02.183Z,16.54
2022-10-11T06:23:03.673Z,16.52
2022-10-11T06:24:05.374Z,16.51
2022-10-11T06:25:07.243Z,16.49
2022-10-11T06:26:09.804Z,16.48
2022-10-11T06:27:11.928Z,16.47
2022-10-11T06:28:13.450Z,16.47
2022-10-11T06:29:15.096Z,16.47
2022-10-11T06:30:16.572Z,16.45
2022-10-11T06:31:18.023Z,16.44
2022-10-11T06:32:19.591Z,16.44
2022-10-11T06:33:21.075Z,16.41
2022-10-11T06:34:22.761Z,16.39
2022-10-11T06:35:24.265Z,16.39
2022-10-11T06:36:25.894Z,16.39
2022-10-11T06:37:27.340Z,16.39
2022-10-11T06:38:28.830Z,16.39
2022-10-11T06:39:30.322Z,16.39
2022-10-11T06:40:31.792Z,16.39
2022-10-11T06:41:33.330Z,16.40
2022-10-11T06:42:34.888Z,16.39
2022-10-11T06:43:36.386Z,16.41
2022-10-11T06:44:38.263Z,16.42
2022-10-11T06:45:39.747Z,16.45
2022-10-11T06:46:41.248Z,16.46
2022-10-11T06:47:42.771Z,16.49
2022-10-11T06:48:44.531Z,16.52
2022-10-11T06:49:45.981Z,16.54
2022-10-11T06:50:59.576Z,16.57
2022-10-11T06:52:01.614Z,16.59
2022-10-11T06:53:03.094Z,16.66
2022-10-11T06:54:05.279Z,16.69
2022-10-11T06:55:06.868Z,16.72
2022-10-11T06:56:09.952Z,16.77
2022-10-11T06:57:11.868Z,16.80
2022-10-11T06:58:13.361Z,16.86
2022-10-11T06:59:15.087Z,16.91
2022-10-11T07:00:16.743Z,16.98
2022-10-11T07:01:20.202Z,17.04
2022-10-11T07:02:21.782Z,17.10
2022-10-11T07:03:23.321Z,17.18
2022-10-11T07:04:24.770Z,17.22
2022-10-11T07:05:26.311Z,17.28
2022-10-11T07:06:28.299Z,17.35
2022-10-11T07:07:29.857Z,17.42
2022-10-11T07:08:31.411Z,17.50
2022-10-11T07:09:34.176Z,17.58
2022-10-11T07:10:35.734Z,17.67
2022-10-11T07:11:37.281Z,17.75
2022-10-11T07:12:38.752Z,17.86
2022-10-11T07:13:40.230Z,17.92
2022-10-11T07:14:41.824Z,18.01
2022-10-11T07:15:43.260Z,18.08
2022-10-11T07:16:44.710Z,18.17
2022-10-11T07:17:46.498Z,18.25
2022-10-11T07:18:48.163Z,18.29
2022-10-11T07:19:49.638Z,18.36
2022-10-11T07:20:51.090Z,18.41
2022-10-11T07:21:52.597Z,18.49
2022-10-11T07:22:54.544Z,18.57
2022-10-11T07:23:56.053Z,18.65
2022-10-11T07:24:57.589Z,18.73
2022-10-11T07:25:59.083Z,18.79
2022-10-11T07:27:00.578Z,18.87
2022-10-11T07:28:02.067Z,18.89
2022-10-11T07:29:03.701Z,18.93
2022-10-11T07:30:05.575Z,18.98
2022-10-11T07:31:08.024Z,19.05
2022-10-11T07:32:09.483Z,19.13
2022-10-11T07:33:11.054Z,19.27
2022-10-11T07:34:12.555Z,19.39
2022-10-11T07:35:14.051Z,19.49
2022-10-11T07:36:15.550Z,19.62
2022-10-11T07:37:17.016Z,19.71
2022-10-11T07:38:18.520Z,19.81
2022-10-11T07:39:20.035Z,19.91
2022-10-11T07:40:21.470Z,19.93
2022-10-11T07:41:22.952Z,19.98
2022-10-11T07:42:24.394Z,20.05
2022-10-11T07:43:25.859Z,20.09
2022-10-11T07:44:27.391Z,20.16
2022-10-11T07:45:28.944Z,20.21
2022-10-11T07:46:30.570Z,20.28
2022-10-11T07:47:32.202Z,20.36
2022-10-11T07:48:34.019Z,20.44
2022-10-11T07:49:35.545Z,20.57
2022-10-11T07:50:36.992Z,20.62
2022-10-11T07:51:38.422Z,20.65
2022-10-11T07:52:40.569Z,20.68
2022-10-11T07:53:45.932Z,20.76
2022-10-11T07:54:50.497Z,20.87
2022-10-11T07:55:51.979Z,20.97
2022-10-11T07:56:53.436Z,21.03
2022-10-11T07:57:55.150Z,21.07
2022-10-11T07:58:57.391Z,21.12
2022-10-11T07:59:58.875Z,21.24
2022-10-11T08:01:00.559Z,21.34
2022-10-11T08:02:02.136Z,21.39
2022-10-11T08:03:04.267Z,21.34
2022-10-11T08:04:05.953Z,21.36
2022-10-11T08:05:07.555Z,21.42
2022-10-11T08:06:09.706Z,21.42
2022-10-11T08:07:11.548Z,21.43
2022-10-11T08:08:13.026Z,21.54
2022-10-11T08:09:14.666Z,21.62
2022-10-11T08:10:16.110Z,21.73
2022-10-11T08:11:24.116Z,21.77
2022-10-11T08:12:25.641Z,21.89
2022-10-11T08:13:27.139Z,21.96
2022-10-11T08:14:28.596Z,21.99
2022-10-11T08:15:30.073Z,22.06
2022-10-11T08:16:31.969Z,22.08
2022-10-11T08:17:33.446Z,22.16
2022-10-11T08:18:34.952Z,22.18
2022-10-11T08:19:36.400Z,22.28
2022-10-11T08:20:38.619Z,22.38
2022-10-11T08:21:40.131Z,22.47
2022-10-11T08:22:42.048Z,22.55
2022-10-11T08:23:43.555Z,22.58
2022-10-11T08:24:45.063Z,22.66
2022-10-11T08:25:46.967Z,22.69
2022-10-11T08:26:48.456Z,22.72
2022-10-11T08:27:49.918Z,22.76
2022-10-11T08:28:51.389Z,22.83
2022-10-11T08:29:52.874Z,22.86
2022-10-11T08:30:54.725Z,22.90
2022-10-11T08:31:56.480Z,22.97
2022-10-11T08:32:57.976Z,23.02
2022-10-11T08:33:59.407Z,23.08
2022-10-11T08:35:00.960Z,23.15
2022-10-11T08:36:04.316Z,23.13
2022-10-11T08:37:06.180Z,23.12
2022-10-11T08:38:07.679Z,23.11
2022-10-11T08:39:09.210Z,23.16
2022-10-11T08:40:12.447Z,23.24
2022-10-11T08:41:19.586Z,23.35
2022-10-11T08:42:32.362Z,23.39
2022-10-11T08:43:42.832Z,23.41
2022-10-11T08:45:09.572Z,23.49
2022-10-11T08:46:08.604Z,23.55
2022-10-11T08:47:29.328Z,23.71
2022-10-11T08:48:38.429Z,23.65
2022-10-11T08:49:39.882Z,23.55
2022-10-11T08:50:41.410Z,23.53
2022-10-11T08:51:43.727Z,23.51
2022-10-11T08:52:47.554Z,23.41
2022-10-11T08:53:53.317Z,23.34
2022-10-11T08:55:08.310Z,23.32
2022-10-11T08:56:10.924Z,23.32
2022-10-11T08:57:16.643Z,23.20
2022-10-11T08:58:19.706Z,23.10
2022-10-11T08:59:25.282Z,23.03
2022-10-11T09:00:27.886Z,22.98
2022-10-11T09:01:29.479Z,23.13
2022-10-11T09:02:56.078Z,23.29
2022-10-11T09:04:00.162Z,23.41
2022-10-11T09:05:01.991Z,23.51
2022-10-11T09:06:03.875Z,23.61
2022-10-11T09:07:07.527Z,23.65
2022-10-11T09:08:25.021Z,23.80
2022-10-11T09:09:45.095Z,24.00
2022-10-11T09:11:06.731Z,24.12
2022-10-11T09:12:13.883Z,24.19
2022-10-11T09:13:18.345Z,24.21
2022-10-11T09:14:38.264Z,24.20
2022-10-11T09:15:42.471Z,24.15
2022-10-11T09:16:46.746Z,24.15
2022-10-11T09:17:48.144Z,24.06
2022-10-11T09:19:06.754Z,24.09
2022-10-11T09:20:22.746Z,23.95
2022-10-11T09:21:29.995Z,23.90
2022-10-11T09:22:43.664Z,23.87
2022-10-11T09:23:57.513Z,23.83
2022-10-11T09:25:17.352Z,23.63
2022-10-11T09:26:21.158Z,23.49
2022-10-11T09:27:50.276Z,23.47
2022-10-11T09:28:50.652Z,23.44
2022-10-11T09:29:58.182Z,23.29
2022-10-11T09:30:59.691Z,23.12
2022-10-11T09:32:01.212Z,23.06
2022-10-11T09:33:21.323Z,23.11
2022-10-11T09:34:24.298Z,23.05
2022-10-11T09:35:25.826Z,23.06
2022-10-11T09:36:41.176Z,23.02
2022-10-11T09:37:59.442Z,23.02
2022-10-11T09:39:07.875Z,23.08
2022-10-11T09:40:12.154Z,23.11
2022-10-11T09:41:15.203Z,23.05
2022-10-11T09:42:17.180Z,23.01
2022-10-11T09:43:18.724Z,23.07
2022-10-11T09:44:21.899Z,22.99
2022-10-11T09:45:23.750Z,22.93
2022-10-11T09:46:31.425Z,22.93
2022-10-11T09:47:33.095Z,22.90
2022-10-11T09:48:38.754Z,22.84
2022-10-11T09:49:40.951Z,22.83
2022-10-11T09:50:42.452Z,22.70
2022-10-11T09:51:46.071Z,22.76
2022-10-11T09:52:50.886Z,22.78
2022-10-11T09:53:52.328Z,22.80
2022-10-11T09:54:58.042Z,22.82
2022-10-11T09:56:02.975Z,22.89
2022-10-11T09:57:04.678Z,22.96
2022-10-11T09:58:06.699Z,23.02
2022-10-11T09:59:08.457Z,23.05
2022-10-11T10:00:23.347Z,23.08
2022-10-11T10:01:25.172Z,23.19
2022-10-11T10:02:27.434Z,23.30
2022-10-11T10:03:29.864Z,23.34
2022-10-11T10:04:31.421Z,23.41
2022-10-11T10:05:33.812Z,23.45
2022-10-11T10:06:35.314Z,23.40
2022-10-11T10:07:40.945Z,23.37
2022-10-11T10:08:47.609Z,23.41
2022-10-11T10:09:49.753Z,23.43
2022-10-11T10:10:59.433Z,23.44
2022-10-11T10:12:01.283Z,23.40
2022-10-11T10:13:03.850Z,23.40
2022-10-11T10:14:05.294Z,23.40
2022-10-11T10:15:07.664Z,23.36
2022-10-11T10:16:18.287Z,23.27
2022-10-11T10:17:19.746Z,23.17
2022-10-11T10:18:26.172Z,23.16
2022-10-11T10:19:27.630Z,23.17
2022-10-11T10:20:35.343Z,23.06
2022-10-11T10:21:37.471Z,22.98
2022-10-11T10:22:38.923Z,22.96
2022-10-11T10:23:40.684Z,22.96
2022-10-11T10:24:42.475Z,22.93
2022-10-11T10:25:43.947Z,22.97
2022-10-11T10:27:03.867Z,23.10
2022-10-11T10:28:22.273Z,23.28
2022-10-11T10:29:23.871Z,23.40
2022-10-11T10:30:25.317Z,23.41
2022-10-11T10:32:08.783Z,23.38
2022-10-11T10:33:08.561Z,23.43
2022-10-11T10:34:14.168Z,23.45
2022-10-11T10:35:18.532Z,23.55
2022-10-11T10:36:21.833Z,23.56
2022-10-11T10:37:29.604Z,23.63
2022-10-11T10:38:31.373Z,23.63
2022-10-11T10:39:42.387Z,23.64
2022-10-11T10:40:45.654Z,23.62
2022-10-11T10:41:47.484Z,23.50
2022-10-11T10:42:49.699Z,23.44
2022-10-11T10:43:56.002Z,23.47
2022-10-11T10:44:58.640Z,23.46
2022-10-11T10:46:00.346Z,23.43
2022-10-11T10:47:04.594Z,23.44
2022-10-11T10:48:18.307Z,23.33
2022-10-11T10:49:52.443Z,23.19
2022-10-11T10:50:50.788Z,23.03
2022-10-11T10:52:18.624Z,23.02
2022-10-11T10:53:26.043Z,23.02
2022-10-11T10:54:30.312Z,23.14
2022-10-11T10:55:31.792Z,23.16
2022-10-11T10:56:38.259Z,23.15
2022-10-11T10:57:54.636Z,23.11
2022-10-11T10:58:56.041Z,23.14
2022-10-11T11:00:06.581Z,23.13
2022-10-11T11:01:24.096Z,23.12
2022-10-11T11:02:40.362Z,23.12
2022-10-11T11:03:44.301Z,23.15
2022-10-11T11:04:48.323Z,23.14
2022-10-11T11:05:56.009Z,23.07
2022-10-11T11:07:09.861Z,23.04
2022-10-11T11:08:29.918Z,23.05
2022-10-11T11:09:50.366Z,23.06
2022-10-11T11:11:01.381Z,23.11
2022-10-11T11:12:05.913Z,23.16
2022-10-11T11:13:16.278Z,23.16
2022-10-11T11:14:23.819Z,23.14
2022-10-11T11:15:39.067Z,23.06
2022-10-11T11:16:42.570Z,23.01
2022-10-11T11:17:44.054Z,23.07
2022-10-11T11:18:54.355Z,23.15
2022-10-11T11:19:55.795Z,23.18
2022-10-11T11:21:15.617Z,23.20
2022-10-11T11:22:23.220Z,23.24
2022-10-11T11:23:31.890Z,23.29
2022-10-11T11:24:51.566Z,23.34
2022-10-11T11:25:57.312Z,23.31
2022-10-11T11:27:01.430Z,23.35
2022-10-11T11:28:21.602Z,23.41
2022-10-11T11:29:23.124Z,23.47
2022-10-11T11:30:42.795Z,23.48
2022-10-11T11:31:44.235Z,23.49
2022-10-11T11:33:00.795Z,23.54
2022-10-11T11:34:09.945Z,23.56
2022-10-11T11:35:17.093Z,23.58
2022-10-11T11:36:21.099Z,23.62
2022-10-11T11:37:25.575Z,23.60
2022-10-11T11:38:46.948Z,23.62
2022-10-11T11:39:49.138Z,23.65
2022-10-11T11:40:55.059Z,23.66
2022-10-11T11:41:58.086Z,23.70
2022-10-11T11:43:00.243Z,23.72
2022-10-11T11:44:03.395Z,23.74
2022-10-11T11:45:06.072Z,23.81
2022-10-11T11:46:12.874Z,23.81
2022-10-11T11:47:17.931Z,23.83
2022-10-11T11:48:20.218Z,23.83
2022-10-11T11:49:23.893Z,23.86
2022-10-11T11:50:27.866Z,23.86
2022-10-11T11:51:32.760Z,23.89
2022-10-11T11:52:39.629Z,23.92
2022-10-11T11:53:47.502Z,23.95
2022-10-11T11:55:04.137Z,23.96
2022-10-11T11:56:41.064Z,23.96
2022-10-11T11:57:57.800Z,23.99
2022-10-11T11:59:05.399Z,24.01
2022-10-11T12:00:14.151Z,24.02
2022-10-11T12:01:15.588Z,24.06
2022-10-11T12:02:26.302Z,24.08
2022-10-11T12:03:28.692Z,24.09
2022-10-11T12:04:31.731Z,24.08
2022-10-11T12:05:33.972Z,24.10
2022-10-11T12:06:37.879Z,24.11
2022-10-11T12:07:50.486Z,24.12
2022-10-11T12:09:21.573Z,24.14
2022-10-11T12:10:25.999Z,24.14
2022-10-11T12:11:36.719Z,24.17
2022-10-11T12:12:38.256Z,24.14
2022-10-11T12:13:40.722Z,24.15
2022-10-11T12:14:42.578Z,24.19
2022-10-11T12:16:00.331Z,24.20
2022-10-11T12:17:07.495Z,24.22
2022-10-11T12:18:13.639Z,24.25
2022-10-11T12:19:15.124Z,24.27
2022-10-11T12:20:20.974Z,24.30
2022-10-11T12:21:35.505Z,24.32
2022-10-11T12:22:38.399Z,24.34
2022-10-11T12:23:41.298Z,24.32
2022-10-11T12:25:02.032Z,24.32
2022-10-11T12:26:22.259Z,24.35
2022-10-11T12:27:36.860Z,24.38
2022-10-11T12:28:41.180Z,24.43
2022-10-11T12:29:48.992Z,24.46
2022-10-11T12:30:51.313Z,24.46
2022-10-11T12:31:58.791Z,24.47
2022-10-11T12:33:11.094Z,24.50
2022-10-11T12:34:21.261Z,24.49
2022-10-11T12:35:32.275Z,24.49
2022-10-11T12:36:34.093Z,24.50
2022-10-11T12:37:35.569Z,24.54
2022-10-11T12:38:38.464Z,24.53
2022-10-11T12:39:44.753Z,24.55
2022-10-11T12:40:47.258Z,24.56
2022-10-11T12:41:49.806Z,24.53
2022-10-11T12:43:11.710Z,24.52
2022-10-11T12:44:19.029Z,24.52
2022-10-11T12:45:20.433Z,24.54
2022-10-11T12:46:28.041Z,24.56
2022-10-11T12:47:35.743Z,24.57
2022-10-11T12:48:45.318Z,24.54
2022-10-11T12:49:49.860Z,24.52
2022-10-11T12:51:10.125Z,24.55
2022-10-11T12:52:17.840Z,24.56
2022-10-11T12:53:29.559Z,24.57
2022-10-11T12:54:40.013Z,24.59
2022-10-11T12:55:41.432Z,24.58
2022-10-11T12:56:42.879Z,24.56
2022-10-11T12:57:56.883Z,24.57
2022-10-11T12:59:01.634Z,24.55
2022-10-11T13:00:17.135Z,24.57
2022-10-11T13:01:19.627Z,24.56
2022-10-11T13:02:29.149Z,24.57
2022-10-11T13:03:34.454Z,24.58
2022-10-11T13:04:35.898Z,24.59
2022-10-11T13:05:45.186Z,24.60
2022-10-11T13:06:53.601Z,24.59
2022-10-11T13:07:55.714Z,24.60
2022-10-11T13:08:57.252Z,24.61
2022-10-11T13:09:58.731Z,24.63
2022-10-11T13:11:04.634Z,24.63
2022-10-11T13:12:07.236Z,24.65
2022-10-11T13:13:09.999Z,24.65
2022-10-11T13:14:18.266Z,24.66
2022-10-11T13:15:20.683Z,24.68
2022-10-11T13:16:42.102Z,24.70
2022-10-11T13:17:43.710Z,24.69
2022-10-11T13:18:45.939Z,24.69
2022-10-11T13:19:50.793Z,24.69
2022-10-11T13:20:52.291Z,24.68
2022-10-11T13:21:54.710Z,24.68
2022-10-11T13:22:56.263Z,24.70
2022-10-11T13:23:58.655Z,24.71
2022-10-11T13:25:00.105Z,24.68
2022-10-11T13:26:01.675Z,24.65
2022-10-11T13:27:03.186Z,24.66
2022-10-11T13:28:04.767Z,24.63
2022-10-11T13:29:12.086Z,24.61
2022-10-11T13:30:20.739Z,24.59
2022-10-11T13:31:23.223Z,24.57
2022-10-11T13:32:25.295Z,24.53
2022-10-11T13:33:33.197Z,24.53
2022-10-11T13:34:36.368Z,24.52
2022-10-11T13:35:38.080Z,24.51
2022-10-11T13:36:39.560Z,24.49
2022-10-11T13:37:42.480Z,24.48
2022-10-11T13:38:50.054Z,24.48
2022-10-11T13:39:51.912Z,24.46
2022-10-11T13:40:53.742Z,24.46
2022-10-11T13:41:55.782Z,24.45
2022-10-11T13:42:57.325Z,24.43
2022-10-11T13:43:59.307Z,24.38
2022-10-11T13:45:00.875Z,24.36
2022-10-11T13:46:05.108Z,24.33
2022-10-11T13:47:06.892Z,24.31
2022-10-11T13:48:14.618Z,24.29
2022-10-11T13:49:37.583Z,24.25